Sault Ste Marie Airport
CYAM : now visible

Airfield :











YOU CAN JOIN US ON...

 
LOGIN :

Register | Disclaimer

   EN    FR    IT 

 









Legend :    VFR   Marginal VFR   IFR   Intensive IFR   Very Intensive IFR
Visi :
Ceiling :
>= 8 km
>= 3000ft
5 to 8 km
1000 to 3000 ft
1500m to 5 km
500 to 1000 ft
800 to 1500m
200 to 500 ft
< 800m
< 200 ft
Symbols :   Thunderstorms  Fog  Heavy snow  Heavy precipitations  Wind > 20 kt






- Airport Elevation : 630 ft
- IATA code : YAM


CYAM - Sault Ste Marie

CURRENT METAR :
  • 050806Z 32010G16KT 12SM -SHRA FEW012 SCT014 BKN032TCU OVC074 14/13 A2997 RMK CF2CU2TCU3AC1 SLP152 DENSITY ALT 700FT

EXPIRED METARs :
  • 050700Z 31009KT 20SM SCT022TCU BKN074 BKN240 15/11 A2997 RMK TCU3AC3CI1 CI TR SLP152 DENSITY ALT 800FT
  • 050600Z 30008KT 25SM SCT022TCU BKN077 BKN240 14/12 A2998 RMK TCU3AC2CI1 SLP154 DENSITY ALT 700FT
  • 050500Z 30005KT 25SM FEW018 FEW022 SCT080 BKN230 14/12 A2999 RMK SC1SC1AC1CI2 SLP158

TAF TAF CYAM
Valid from the 05 at 08:00 until the 05 at 20:00 UTC


050738Z 0508/0520 31008KT P6SM SCT020 BKN070
TEMPO 0508/0516 P6SM -SHRA BKN020 BKN070
FM051600 30012KT P6SM SCT070 RMK NXT FCST BY 051400Z
CZYZ FIR / North America



MET'MAP, your aeronautical weather chart ! - Copyright ORBIFLY December 2007 - Disclaimer

ORBIFLY MET'MAP TEAM :

Programming & Development : Alexandra Zaïnal
Concept & original design : Baudouin d'Aumeries
Assistance for programming : Marc-Olivier Méhu
Technical & hardware support : Manuel Goepfert

Contact : metmap@orbifly.com




SOURCES & CREDITS :

   NOAA       Earth
Advisory